sensor_id;sensor_type;location;lat;lon;timestamp;P1;durP1;ratioP1;P2;durP2;ratioP2
78860;SDS011;68211;45.774;15.892;2023-03-14T00:01:10;6.75;;;4.10;;
78860;SDS011;68211;45.774;15.892;2023-03-14T00:03:36;4.85;;;3.97;;
78860;SDS011;68211;45.774;15.892;2023-03-14T00:06:03;5.70;;;3.70;;
78860;SDS011;68211;45.774;15.892;2023-03-14T00:08:30;6.55;;;4.18;;
78860;SDS011;68211;45.774;15.892;2023-03-14T00:10:56;6.97;;;4.00;;
78860;SDS011;68211;45.774;15.892;2023-03-14T00:13:23;5.28;;;3.85;;
78860;SDS011;68211;45.774;15.892;2023-03-14T00:15:51;8.65;;;3.92;;
78860;SDS011;68211;45.774;15.892;2023-03-14T00:18:17;6.18;;;4.20;;
78860;SDS011;68211;45.774;15.892;2023-03-14T00:20:43;6.25;;;4.22;;
78860;SDS011;68211;45.774;15.892;2023-03-14T00:23:10;5.95;;;3.90;;
78860;SDS011;68211;45.774;15.892;2023-03-14T00:25:36;4.80;;;3.38;;
78860;SDS011;68211;45.774;15.892;2023-03-14T00:28:03;5.00;;;3.20;;
78860;SDS011;68211;45.774;15.892;2023-03-14T00:30:29;5.32;;;3.10;;
78860;SDS011;68211;45.774;15.892;2023-03-14T00:32:57;3.55;;;3.25;;
78860;SDS011;68211;45.774;15.892;2023-03-14T00:35:24;3.70;;;2.97;;
78860;SDS011;68211;45.774;15.892;2023-03-14T00:37:50;6.45;;;3.50;;
78860;SDS011;68211;45.774;15.892;2023-03-14T00:40:17;6.05;;;3.47;;
78860;SDS011;68211;45.774;15.892;2023-03-14T00:42:43;6.47;;;3.40;;
78860;SDS011;68211;45.774;15.892;2023-03-14T00:45:10;6.93;;;3.28;;
78860;SDS011;68211;45.774;15.892;2023-03-14T00:47:36;4.00;;;3.25;;
78860;SDS011;68211;45.774;15.892;2023-03-14T00:50:04;4.35;;;3.05;;
78860;SDS011;68211;45.774;15.892;2023-03-14T00:52:31;4.85;;;3.20;;
78860;SDS011;68211;45.774;15.892;2023-03-14T00:54:58;4.93;;;3.30;;
78860;SDS011;68211;45.774;15.892;2023-03-14T00:57:24;7.25;;;3.10;;
78860;SDS011;68211;45.774;15.892;2023-03-14T00:59:50;6.03;;;3.38;;
78860;SDS011;68211;45.774;15.892;2023-03-14T01:02:17;5.28;;;2.80;;
78860;SDS011;68211;45.774;15.892;2023-03-14T01:04:43;4.72;;;3.03;;
78860;SDS011;68211;45.774;15.892;2023-03-14T01:07:11;3.63;;;2.95;;
78860;SDS011;68211;45.774;15.892;2023-03-14T01:09:37;6.50;;;3.42;;
78860;SDS011;68211;45.774;15.892;2023-03-14T01:12:04;4.78;;;3.30;;
78860;SDS011;68211;45.774;15.892;2023-03-14T01:14:30;4.72;;;3.00;;
78860;SDS011;68211;45.774;15.892;2023-03-14T01:16:57;7.25;;;3.45;;
78860;SDS011;68211;45.774;15.892;2023-03-14T01:19:23;5.07;;;3.35;;
78860;SDS011;68211;45.774;15.892;2023-03-14T01:21:49;3.65;;;3.20;;
78860;SDS011;68211;45.774;15.892;2023-03-14T01:24:17;7.82;;;3.15;;
78860;SDS011;68211;45.774;15.892;2023-03-14T01:26:43;7.70;;;2.75;;
78860;SDS011;68211;45.774;15.892;2023-03-14T01:29:10;4.22;;;2.95;;
78860;SDS011;68211;45.774;15.892;2023-03-14T01:31:36;6.40;;;2.92;;
78860;SDS011;68211;45.774;15.892;2023-03-14T01:34:03;6.00;;;3.22;;
78860;SDS011;68211;45.774;15.892;2023-03-14T01:36:29;5.57;;;3.03;;
78860;SDS011;68211;45.774;15.892;2023-03-14T01:38:57;5.05;;;3.00;;
78860;SDS011;68211;45.774;15.892;2023-03-14T01:41:25;4.03;;;3.47;;
78860;SDS011;68211;45.774;15.892;2023-03-14T01:43:51;8.15;;;3.15;;
78860;SDS011;68211;45.774;15.892;2023-03-14T01:46:22;5.28;;;2.75;;
78860;SDS011;68211;45.774;15.892;2023-03-14T01:48:51;3.25;;;2.63;;
78860;SDS011;68211;45.774;15.892;2023-03-14T01:51:20;4.85;;;2.85;;
78860;SDS011;68211;45.774;15.892;2023-03-14T01:53:47;3.58;;;2.53;;
78860;SDS011;68211;45.774;15.892;2023-03-14T01:56:15;5.10;;;2.35;;
78860;SDS011;68211;45.774;15.892;2023-03-14T01:58:44;4.00;;;2.45;;
78860;SDS011;68211;45.774;15.892;2023-03-14T02:01:11;2.80;;;2.58;;
78860;SDS011;68211;45.774;15.892;2023-03-14T02:03:38;2.63;;;2.17;;
78860;SDS011;68211;45.774;15.892;2023-03-14T02:06:09;2.92;;;2.63;;
78860;SDS011;68211;45.774;15.892;2023-03-14T02:08:36;4.40;;;2.22;;
78860;SDS011;68211;45.774;15.892;2023-03-14T02:11:04;3.17;;;1.85;;
78860;SDS011;68211;45.774;15.892;2023-03-14T02:13:30;3.97;;;2.00;;
78860;SDS011;68211;45.774;15.892;2023-03-14T02:15:58;3.20;;;2.30;;
78860;SDS011;68211;45.774;15.892;2023-03-14T02:18:24;3.03;;;1.90;;
78860;SDS011;68211;45.774;15.892;2023-03-14T02:20:52;3.75;;;2.40;;
78860;SDS011;68211;45.774;15.892;2023-03-14T02:23:23;3.58;;;2.28;;
78860;SDS011;68211;45.774;15.892;2023-03-14T02:25:54;3.10;;;2.10;;
78860;SDS011;68211;45.774;15.892;2023-03-14T02:28:24;2.65;;;1.92;;
78860;SDS011;68211;45.774;15.892;2023-03-14T02:30:51;3.83;;;2.28;;
78860;SDS011;68211;45.774;15.892;2023-03-14T02:33:18;2.72;;;1.98;;
78860;SDS011;68211;45.774;15.892;2023-03-14T02:35:46;2.42;;;2.10;;
78860;SDS011;68211;45.774;15.892;2023-03-14T02:38:15;2.88;;;2.05;;
78860;SDS011;68211;45.774;15.892;2023-03-14T02:40:43;6.22;;;2.28;;
78860;SDS011;68211;45.774;15.892;2023-03-14T02:43:10;2.75;;;1.98;;
78860;SDS011;68211;45.774;15.892;2023-03-14T02:45:40;2.40;;;1.85;;
78860;SDS011;68211;45.774;15.892;2023-03-14T02:48:07;2.70;;;2.10;;
78860;SDS011;68211;45.774;15.892;2023-03-14T02:50:35;2.92;;;1.90;;
78860;SDS011;68211;45.774;15.892;2023-03-14T02:53:01;4.97;;;2.00;;
78860;SDS011;68211;45.774;15.892;2023-03-14T02:55:27;2.13;;;1.92;;
78860;SDS011;68211;45.774;15.892;2023-03-14T02:57:54;2.83;;;2.17;;
78860;SDS011;68211;45.774;15.892;2023-03-14T03:00:20;3.80;;;2.10;;
78860;SDS011;68211;45.774;15.892;2023-03-14T03:02:48;2.22;;;1.90;;
78860;SDS011;68211;45.774;15.892;2023-03-14T03:05:14;9.90;;;1.83;;
78860;SDS011;68211;45.774;15.892;2023-03-14T03:07:41;1.88;;;1.63;;
78860;SDS011;68211;45.774;15.892;2023-03-14T03:10:08;2.75;;;1.80;;
78860;SDS011;68211;45.774;15.892;2023-03-14T03:12:34;4.00;;;1.65;;
78860;SDS011;68211;45.774;15.892;2023-03-14T03:15:01;2.03;;;1.60;;
78860;SDS011;68211;45.774;15.892;2023-03-14T03:17:27;1.60;;;1.50;;
78860;SDS011;68211;45.774;15.892;2023-03-14T03:19:55;3.53;;;1.67;;
78860;SDS011;68211;45.774;15.892;2023-03-14T03:22:21;3.00;;;1.63;;
78860;SDS011;68211;45.774;15.892;2023-03-14T03:24:48;2.20;;;1.55;;
78860;SDS011;68211;45.774;15.892;2023-03-14T03:27:15;2.10;;;1.50;;
78860;SDS011;68211;45.774;15.892;2023-03-14T03:29:41;2.63;;;1.90;;
78860;SDS011;68211;45.774;15.892;2023-03-14T03:32:07;1.80;;;1.70;;
78860;SDS011;68211;45.774;15.892;2023-03-14T03:34:34;3.55;;;1.92;;
78860;SDS011;68211;45.774;15.892;2023-03-14T03:37:01;2.83;;;1.70;;
78860;SDS011;68211;45.774;15.892;2023-03-14T03:39:28;2.92;;;1.77;;
78860;SDS011;68211;45.774;15.892;2023-03-14T03:41:54;4.63;;;1.98;;
78860;SDS011;68211;45.774;15.892;2023-03-14T03:44:21;4.35;;;1.67;;
78860;SDS011;68211;45.774;15.892;2023-03-14T03:46:47;2.90;;;1.50;;
78860;SDS011;68211;45.774;15.892;2023-03-14T03:49:13;2.58;;;1.70;;
78860;SDS011;68211;45.774;15.892;2023-03-14T03:51:40;3.10;;;1.80;;
78860;SDS011;68211;45.774;15.892;2023-03-14T03:54:08;2.47;;;1.73;;
78860;SDS011;68211;45.774;15.892;2023-03-14T03:56:34;2.80;;;1.52;;
78860;SDS011;68211;45.774;15.892;2023-03-14T03:59:00;4.40;;;1.70;;
78860;SDS011;68211;45.774;15.892;2023-03-14T04:01:27;1.70;;;1.60;;
78860;SDS011;68211;45.774;15.892;2023-03-14T04:03:53;4.18;;;2.13;;
78860;SDS011;68211;45.774;15.892;2023-03-14T04:06:20;2.63;;;1.48;;
78860;SDS011;68211;45.774;15.892;2023-03-14T04:08:46;4.40;;;1.45;;
78860;SDS011;68211;45.774;15.892;2023-03-14T04:11:14;2.53;;;1.50;;
78860;SDS011;68211;45.774;15.892;2023-03-14T04:13:43;2.28;;;1.65;;
78860;SDS011;68211;45.774;15.892;2023-03-14T04:16:11;3.45;;;1.80;;
78860;SDS011;68211;45.774;15.892;2023-03-14T04:18:39;2.75;;;2.22;;
78860;SDS011;68211;45.774;15.892;2023-03-14T04:21:05;4.63;;;1.90;;
78860;SDS011;68211;45.774;15.892;2023-03-14T04:23:32;4.68;;;2.20;;
78860;SDS011;68211;45.774;15.892;2023-03-14T04:25:58;5.82;;;1.92;;
78860;SDS011;68211;45.774;15.892;2023-03-14T04:28:26;4.95;;;2.00;;
78860;SDS011;68211;45.774;15.892;2023-03-14T04:30:52;3.90;;;1.90;;
78860;SDS011;68211;45.774;15.892;2023-03-14T04:33:18;3.17;;;1.70;;
78860;SDS011;68211;45.774;15.892;2023-03-14T04:35:45;2.35;;;1.67;;
78860;SDS011;68211;45.774;15.892;2023-03-14T04:38:12;2.85;;;1.95;;
78860;SDS011;68211;45.774;15.892;2023-03-14T04:40:38;3.20;;;1.60;;
78860;SDS011;68211;45.774;15.892;2023-03-14T04:43:05;2.47;;;1.60;;
78860;SDS011;68211;45.774;15.892;2023-03-14T04:45:33;2.50;;;1.75;;
78860;SDS011;68211;45.774;15.892;2023-03-14T04:47:59;2.83;;;1.70;;
78860;SDS011;68211;45.774;15.892;2023-03-14T04:50:25;3.70;;;1.80;;
78860;SDS011;68211;45.774;15.892;2023-03-14T04:52:52;2.25;;;1.73;;
78860;SDS011;68211;45.774;15.892;2023-03-14T04:55:18;3.95;;;1.67;;
78860;SDS011;68211;45.774;15.892;2023-03-14T04:57:45;3.95;;;1.67;;
78860;SDS011;68211;45.774;15.892;2023-03-14T05:00:11;3.72;;;1.98;;
78860;SDS011;68211;45.774;15.892;2023-03-14T05:02:39;4.15;;;1.83;;
78860;SDS011;68211;45.774;15.892;2023-03-14T05:05:06;1.65;;;1.50;;
78860;SDS011;68211;45.774;15.892;2023-03-14T05:07:32;2.63;;;1.90;;
78860;SDS011;68211;45.774;15.892;2023-03-14T05:09:59;4.50;;;1.98;;
78860;SDS011;68211;45.774;15.892;2023-03-14T05:12:25;5.25;;;2.00;;
78860;SDS011;68211;45.774;15.892;2023-03-14T05:14:51;3.28;;;1.80;;
78860;SDS011;68211;45.774;15.892;2023-03-14T05:17:18;5.03;;;1.95;;
78860;SDS011;68211;45.774;15.892;2023-03-14T05:19:46;4.35;;;2.05;;
78860;SDS011;68211;45.774;15.892;2023-03-14T05:22:12;4.13;;;2.35;;
78860;SDS011;68211;45.774;15.892;2023-03-14T05:24:38;5.68;;;2.08;;
78860;SDS011;68211;45.774;15.892;2023-03-14T05:27:05;2.78;;;1.92;;
78860;SDS011;68211;45.774;15.892;2023-03-14T05:29:31;4.70;;;2.28;;
78860;SDS011;68211;45.774;15.892;2023-03-14T05:31:58;8.50;;;2.55;;
78860;SDS011;68211;45.774;15.892;2023-03-14T05:34:24;5.18;;;2.15;;
78860;SDS011;68211;45.774;15.892;2023-03-14T05:36:52;4.28;;;2.30;;
78860;SDS011;68211;45.774;15.892;2023-03-14T05:39:18;5.47;;;2.20;;
78860;SDS011;68211;45.774;15.892;2023-03-14T05:41:45;4.55;;;2.17;;
78860;SDS011;68211;45.774;15.892;2023-03-14T05:44:11;4.85;;;2.00;;
78860;SDS011;68211;45.774;15.892;2023-03-14T05:46:37;3.47;;;2.00;;
78860;SDS011;68211;45.774;15.892;2023-03-14T05:49:04;5.38;;;1.63;;
78860;SDS011;68211;45.774;15.892;2023-03-14T05:51:30;3.50;;;2.17;;
78860;SDS011;68211;45.774;15.892;2023-03-14T05:53:58;5.15;;;2.35;;
78860;SDS011;68211;45.774;15.892;2023-03-14T05:56:24;4.20;;;2.40;;
78860;SDS011;68211;45.774;15.892;2023-03-14T05:58:51;6.90;;;1.98;;
78860;SDS011;68211;45.774;15.892;2023-03-14T06:01:17;3.65;;;2.25;;
78860;SDS011;68211;45.774;15.892;2023-03-14T06:03:43;5.22;;;2.30;;
78860;SDS011;68211;45.774;15.892;2023-03-14T06:06:10;4.07;;;2.03;;
78860;SDS011;68211;45.774;15.892;2023-03-14T06:08:36;4.32;;;2.65;;
78860;SDS011;68211;45.774;15.892;2023-03-14T06:11:04;6.68;;;2.78;;
78860;SDS011;68211;45.774;15.892;2023-03-14T06:13:31;6.03;;;2.65;;
78860;SDS011;68211;45.774;15.892;2023-03-14T06:15:57;6.85;;;2.72;;
78860;SDS011;68211;45.774;15.892;2023-03-14T06:18:24;5.03;;;2.50;;
78860;SDS011;68211;45.774;15.892;2023-03-14T06:20:52;7.38;;;2.55;;
78860;SDS011;68211;45.774;15.892;2023-03-14T06:23:19;5.05;;;2.72;;
78860;SDS011;68211;45.774;15.892;2023-03-14T06:25:45;6.47;;;2.83;;
78860;SDS011;68211;45.774;15.892;2023-03-14T06:28:13;6.93;;;2.75;;
78860;SDS011;68211;45.774;15.892;2023-03-14T06:30:39;6.43;;;3.30;;
78860;SDS011;68211;45.774;15.892;2023-03-14T06:33:06;5.28;;;3.00;;
78860;SDS011;68211;45.774;15.892;2023-03-14T06:35:32;3.70;;;3.33;;
78860;SDS011;68211;45.774;15.892;2023-03-14T06:37:59;5.25;;;3.75;;
78860;SDS011;68211;45.774;15.892;2023-03-14T06:40:25;11.15;;;3.25;;
78860;SDS011;68211;45.774;15.892;2023-03-14T06:42:52;6.68;;;3.20;;
78860;SDS011;68211;45.774;15.892;2023-03-14T06:45:20;7.20;;;3.08;;
78860;SDS011;68211;45.774;15.892;2023-03-14T06:47:46;8.90;;;2.83;;
78860;SDS011;68211;45.774;15.892;2023-03-14T06:50:12;6.88;;;2.55;;
78860;SDS011;68211;45.774;15.892;2023-03-14T06:52:39;2.85;;;2.20;;
78860;SDS011;68211;45.774;15.892;2023-03-14T06:55:06;4.10;;;2.28;;
78860;SDS011;68211;45.774;15.892;2023-03-14T06:57:32;2.63;;;2.22;;
78860;SDS011;68211;45.774;15.892;2023-03-14T06:59:58;3.15;;;2.20;;
78860;SDS011;68211;45.774;15.892;2023-03-14T07:02:26;4.50;;;2.60;;
78860;SDS011;68211;45.774;15.892;2023-03-14T07:05:08;3.42;;;2.35;;
78860;SDS011;68211;45.774;15.892;2023-03-14T07:07:34;2.58;;;2.17;;
78860;SDS011;68211;45.774;15.892;2023-03-14T07:10:01;6.47;;;2.60;;
78860;SDS011;68211;45.774;15.892;2023-03-14T07:12:27;2.97;;;2.33;;
78860;SDS011;68211;45.774;15.892;2023-03-14T07:14:53;2.67;;;2.40;;
78860;SDS011;68211;45.774;15.892;2023-03-14T07:17:21;3.65;;;2.53;;
78860;SDS011;68211;45.774;15.892;2023-03-14T07:19:50;4.55;;;2.50;;
78860;SDS011;68211;45.774;15.892;2023-03-14T07:22:17;5.35;;;2.80;;
78860;SDS011;68211;45.774;15.892;2023-03-14T07:24:44;3.38;;;2.20;;
78860;SDS011;68211;45.774;15.892;2023-03-14T07:27:10;4.32;;;2.53;;
78860;SDS011;68211;45.774;15.892;2023-03-14T07:29:37;4.03;;;2.80;;
78860;SDS011;68211;45.774;15.892;2023-03-14T07:32:03;7.90;;;3.03;;
78860;SDS011;68211;45.774;15.892;2023-03-14T07:34:30;3.80;;;2.30;;
78860;SDS011;68211;45.774;15.892;2023-03-14T07:36:58;3.85;;;2.38;;
78860;SDS011;68211;45.774;15.892;2023-03-14T07:39:24;3.47;;;2.35;;
78860;SDS011;68211;45.774;15.892;2023-03-14T07:41:50;5.80;;;2.70;;
78860;SDS011;68211;45.774;15.892;2023-03-14T07:44:17;3.17;;;2.20;;
78860;SDS011;68211;45.774;15.892;2023-03-14T07:46:43;3.80;;;2.40;;
78860;SDS011;68211;45.774;15.892;2023-03-14T07:49:10;5.82;;;2.38;;
78860;SDS011;68211;45.774;15.892;2023-03-14T07:51:36;4.72;;;2.25;;
78860;SDS011;68211;45.774;15.892;2023-03-14T07:54:04;2.53;;;2.30;;
78860;SDS011;68211;45.774;15.892;2023-03-14T07:56:30;3.92;;;2.00;;
78860;SDS011;68211;45.774;15.892;2023-03-14T07:58:56;4.40;;;1.90;;
78860;SDS011;68211;45.774;15.892;2023-03-14T08:01:23;5.85;;;1.98;;
78860;SDS011;68211;45.774;15.892;2023-03-14T08:03:49;3.47;;;2.22;;
78860;SDS011;68211;45.774;15.892;2023-03-14T08:06:16;5.63;;;2.47;;
78860;SDS011;68211;45.774;15.892;2023-03-14T08:08:42;2.50;;;2.30;;
78860;SDS011;68211;45.774;15.892;2023-03-14T08:11:10;4.20;;;2.10;;
78860;SDS011;68211;45.774;15.892;2023-03-14T08:13:36;3.17;;;2.03;;
78860;SDS011;68211;45.774;15.892;2023-03-14T08:16:03;2.10;;;1.70;;
78860;SDS011;68211;45.774;15.892;2023-03-14T08:18:30;4.85;;;2.05;;
78860;SDS011;68211;45.774;15.892;2023-03-14T08:20:56;4.57;;;2.00;;
78860;SDS011;68211;45.774;15.892;2023-03-14T08:23:23;4.05;;;1.88;;
78860;SDS011;68211;45.774;15.892;2023-03-14T08:25:49;4.13;;;2.25;;
78860;SDS011;68211;45.774;15.892;2023-03-14T08:28:17;2.38;;;1.88;;
78860;SDS011;68211;45.774;15.892;2023-03-14T08:30:44;5.00;;;2.08;;
78860;SDS011;68211;45.774;15.892;2023-03-14T08:33:13;4.73;;;2.20;;
78860;SDS011;68211;45.774;15.892;2023-03-14T08:35:39;3.00;;;1.83;;
78860;SDS011;68211;45.774;15.892;2023-03-14T08:38:06;3.47;;;1.90;;
78860;SDS011;68211;45.774;15.892;2023-03-14T08:40:32;2.95;;;1.83;;
78860;SDS011;68211;45.774;15.892;2023-03-14T08:42:58;6.35;;;2.13;;
78860;SDS011;68211;45.774;15.892;2023-03-14T08:45:26;8.65;;;1.90;;
78860;SDS011;68211;45.774;15.892;2023-03-14T08:47:52;4.22;;;3.08;;
78860;SDS011;68211;45.774;15.892;2023-03-14T08:50:19;4.53;;;2.65;;
78860;SDS011;68211;45.774;15.892;2023-03-14T08:52:45;4.18;;;1.95;;
78860;SDS011;68211;45.774;15.892;2023-03-14T08:55:12;5.22;;;2.13;;
78860;SDS011;68211;45.774;15.892;2023-03-14T08:57:38;3.17;;;1.65;;
78860;SDS011;68211;45.774;15.892;2023-03-14T09:00:05;4.55;;;2.25;;
78860;SDS011;68211;45.774;15.892;2023-03-14T09:02:33;2.47;;;1.85;;
78860;SDS011;68211;45.774;15.892;2023-03-14T09:05:00;5.30;;;2.10;;
78860;SDS011;68211;45.774;15.892;2023-03-14T09:07:26;5.55;;;2.20;;
78860;SDS011;68211;45.774;15.892;2023-03-14T09:09:52;3.20;;;1.90;;
78860;SDS011;68211;45.774;15.892;2023-03-14T09:12:19;5.65;;;2.10;;
78860;SDS011;68211;45.774;15.892;2023-03-14T09:14:45;4.85;;;2.25;;
78860;SDS011;68211;45.774;15.892;2023-03-14T09:17:12;4.03;;;1.90;;
78860;SDS011;68211;45.774;15.892;2023-03-14T09:19:39;5.00;;;2.00;;
78860;SDS011;68211;45.774;15.892;2023-03-14T09:22:06;3.80;;;1.90;;
78860;SDS011;68211;45.774;15.892;2023-03-14T09:24:32;3.55;;;2.17;;
78860;SDS011;68211;45.774;15.892;2023-03-14T09:26:59;4.13;;;1.95;;
78860;SDS011;68211;45.774;15.892;2023-03-14T09:29:25;4.30;;;2.20;;
78860;SDS011;68211;45.774;15.892;2023-03-14T09:31:51;4.20;;;2.10;;
78860;SDS011;68211;45.774;15.892;2023-03-14T09:34:18;3.38;;;2.10;;
78860;SDS011;68211;45.774;15.892;2023-03-14T09:36:46;3.88;;;2.17;;
78860;SDS011;68211;45.774;15.892;2023-03-14T09:39:12;5.18;;;2.10;;
78860;SDS011;68211;45.774;15.892;2023-03-14T09:41:39;4.28;;;2.10;;
78860;SDS011;68211;45.774;15.892;2023-03-14T09:44:08;3.75;;;2.35;;
78860;SDS011;68211;45.774;15.892;2023-03-14T09:46:36;4.90;;;2.05;;
78860;SDS011;68211;45.774;15.892;2023-03-14T09:49:05;2.78;;;2.03;;
78860;SDS011;68211;45.774;15.892;2023-03-14T09:51:35;2.60;;;2.05;;
78860;SDS011;68211;45.774;15.892;2023-03-14T09:54:04;5.20;;;1.83;;
78860;SDS011;68211;45.774;15.892;2023-03-14T09:56:31;2.08;;;1.90;;
78860;SDS011;68211;45.774;15.892;2023-03-14T09:58:59;3.60;;;1.73;;
78860;SDS011;68211;45.774;15.892;2023-03-14T10:01:27;1.83;;;1.70;;
78860;SDS011;68211;45.774;15.892;2023-03-14T10:03:58;1.70;;;1.60;;
78860;SDS011;68211;45.774;15.892;2023-03-14T10:06:27;2.33;;;2.13;;
78860;SDS011;68211;45.774;15.892;2023-03-14T10:08:55;5.07;;;2.03;;
78860;SDS011;68211;45.774;15.892;2023-03-14T10:11:23;2.72;;;2.05;;
78860;SDS011;68211;45.774;15.892;2023-03-14T10:14:01;3.38;;;1.67;;
78860;SDS011;68211;45.774;15.892;2023-03-14T10:16:29;3.22;;;1.65;;
78860;SDS011;68211;45.774;15.892;2023-03-14T10:18:59;7.32;;;1.90;;
78860;SDS011;68211;45.774;15.892;2023-03-14T10:21:27;4.47;;;1.80;;
78860;SDS011;68211;45.774;15.892;2023-03-14T10:23:54;5.88;;;1.65;;
78860;SDS011;68211;45.774;15.892;2023-03-14T10:26:24;4.22;;;1.77;;
78860;SDS011;68211;45.774;15.892;2023-03-14T10:28:53;2.13;;;1.90;;
78860;SDS011;68211;45.774;15.892;2023-03-14T10:31:22;2.40;;;1.65;;
78860;SDS011;68211;45.774;15.892;2023-03-14T10:33:57;1.63;;;1.52;;
78860;SDS011;68211;45.774;15.892;2023-03-14T10:36:26;2.83;;;1.60;;
78860;SDS011;68211;45.774;15.892;2023-03-14T10:38:56;4.63;;;1.73;;
78860;SDS011;68211;45.774;15.892;2023-03-14T10:41:25;2.15;;;1.58;;
78860;SDS011;68211;45.774;15.892;2023-03-14T10:43:53;1.95;;;1.67;;
78860;SDS011;68211;45.774;15.892;2023-03-14T10:46:19;1.73;;;1.58;;
78860;SDS011;68211;45.774;15.892;2023-03-14T10:48:46;2.60;;;1.45;;
78860;SDS011;68211;45.774;15.892;2023-03-14T10:51:18;2.15;;;1.50;;
78860;SDS011;68211;45.774;15.892;2023-03-14T10:53:45;2.17;;;1.70;;
78860;SDS011;68211;45.774;15.892;2023-03-14T10:56:13;5.45;;;1.90;;
78860;SDS011;68211;45.774;15.892;2023-03-14T10:58:42;2.92;;;1.70;;
78860;SDS011;68211;45.774;15.892;2023-03-14T11:01:12;2.80;;;1.40;;
78860;SDS011;68211;45.774;15.892;2023-03-14T11:03:43;2.75;;;1.73;;
78860;SDS011;68211;45.774;15.892;2023-03-14T11:06:12;2.60;;;1.70;;
78860;SDS011;68211;45.774;15.892;2023-03-14T11:08:45;2.00;;;1.52;;
78860;SDS011;68211;45.774;15.892;2023-03-14T11:11:15;5.43;;;1.60;;
78860;SDS011;68211;45.774;15.892;2023-03-14T11:16:14;2.85;;;1.70;;
78860;SDS011;68211;45.774;15.892;2023-03-14T11:18:53;2.63;;;2.42;;
78860;SDS011;68211;45.774;15.892;2023-03-14T11:21:24;4.57;;;3.00;;
78860;SDS011;68211;45.774;15.892;2023-03-14T11:23:55;5.63;;;3.83;;
78860;SDS011;68211;45.774;15.892;2023-03-14T11:26:28;7.25;;;3.00;;
78860;SDS011;68211;45.774;15.892;2023-03-14T11:28:59;4.18;;;2.10;;
78860;SDS011;68211;45.774;15.892;2023-03-14T11:31:30;3.08;;;1.90;;
78860;SDS011;68211;45.774;15.892;2023-03-14T11:34:00;2.72;;;2.05;;
78860;SDS011;68211;45.774;15.892;2023-03-14T11:38:55;2.60;;;1.80;;
78860;SDS011;68211;45.774;15.892;2023-03-14T11:41:23;3.00;;;2.00;;
78860;SDS011;68211;45.774;15.892;2023-03-14T11:43:52;4.30;;;1.73;;
78860;SDS011;68211;45.774;15.892;2023-03-14T11:46:21;3.58;;;2.13;;
78860;SDS011;68211;45.774;15.892;2023-03-14T11:48:53;3.42;;;1.60;;
78860;SDS011;68211;45.774;15.892;2023-03-14T11:51:24;2.20;;;1.67;;
78860;SDS011;68211;45.774;15.892;2023-03-14T11:53:54;2.65;;;1.55;;
78860;SDS011;68211;45.774;15.892;2023-03-14T11:56:24;5.63;;;1.73;;
78860;SDS011;68211;45.774;15.892;2023-03-14T11:58:54;1.88;;;1.45;;
78860;SDS011;68211;45.774;15.892;2023-03-14T12:01:21;4.22;;;1.80;;
78860;SDS011;68211;45.774;15.892;2023-03-14T12:03:52;2.55;;;1.60;;
78860;SDS011;68211;45.774;15.892;2023-03-14T12:06:22;2.55;;;1.80;;
78860;SDS011;68211;45.774;15.892;2023-03-14T12:08:52;10.30;;;1.80;;
78860;SDS011;68211;45.774;15.892;2023-03-14T12:11:30;6.85;;;2.00;;
78860;SDS011;68211;45.774;15.892;2023-03-14T12:13:58;2.67;;;1.77;;
78860;SDS011;68211;45.774;15.892;2023-03-14T12:16:37;12.32;;;1.88;;
78860;SDS011;68211;45.774;15.892;2023-03-14T12:21:56;6.70;;;1.75;;
78860;SDS011;68211;45.774;15.892;2023-03-14T12:24:24;4.38;;;1.90;;
78860;SDS011;68211;45.774;15.892;2023-03-14T12:26:53;4.00;;;1.92;;
78860;SDS011;68211;45.774;15.892;2023-03-14T12:29:20;5.30;;;2.05;;
78860;SDS011;68211;45.774;15.892;2023-03-14T12:31:47;3.78;;;2.03;;
78860;SDS011;68211;45.774;15.892;2023-03-14T12:34:29;5.07;;;1.88;;
78860;SDS011;68211;45.774;15.892;2023-03-14T12:37:00;4.72;;;2.10;;
78860;SDS011;68211;45.774;15.892;2023-03-14T12:39:31;4.38;;;1.50;;
78860;SDS011;68211;45.774;15.892;2023-03-14T12:42:03;3.17;;;1.33;;
78860;SDS011;68211;45.774;15.892;2023-03-14T12:44:43;3.35;;;1.30;;
78860;SDS011;68211;45.774;15.892;2023-03-14T12:50:07;4.50;;;1.77;;
78860;SDS011;68211;45.774;15.892;2023-03-14T12:52:36;2.72;;;1.20;;
78860;SDS011;68211;45.774;15.892;2023-03-14T12:55:12;3.13;;;1.75;;
78860;SDS011;68211;45.774;15.892;2023-03-14T12:57:40;2.20;;;1.50;;
78860;SDS011;68211;45.774;15.892;2023-03-14T13:00:16;2.75;;;1.50;;
78860;SDS011;68211;45.774;15.892;2023-03-14T13:02:43;1.05;;;1.00;;
78860;SDS011;68211;45.774;15.892;2023-03-14T13:05:11;1.35;;;1.05;;
78860;SDS011;68211;45.774;15.892;2023-03-14T13:10:21;3.63;;;1.58;;
78860;SDS011;68211;45.774;15.892;2023-03-14T13:12:51;4.22;;;1.50;;
78860;SDS011;68211;45.774;15.892;2023-03-14T13:15:18;2.47;;;1.70;;
78860;SDS011;68211;45.774;15.892;2023-03-14T13:17:46;2.67;;;1.48;;
78860;SDS011;68211;45.774;15.892;2023-03-14T13:20:14;1.73;;;1.50;;
78860;SDS011;68211;45.774;15.892;2023-03-14T13:22:45;5.32;;;1.60;;
78860;SDS011;68211;45.774;15.892;2023-03-14T13:25:13;2.15;;;1.45;;
78860;SDS011;68211;45.774;15.892;2023-03-14T13:27:40;2.65;;;1.30;;
78860;SDS011;68211;45.774;15.892;2023-03-14T13:30:15;1.70;;;1.60;;
78860;SDS011;68211;45.774;15.892;2023-03-14T13:32:42;3.25;;;1.48;;
78860;SDS011;68211;45.774;15.892;2023-03-14T13:35:14;2.03;;;1.45;;
78860;SDS011;68211;45.774;15.892;2023-03-14T13:37:40;2.65;;;1.70;;
78860;SDS011;68211;45.774;15.892;2023-03-14T13:40:17;3.38;;;1.77;;
78860;SDS011;68211;45.774;15.892;2023-03-14T13:42:45;3.60;;;1.50;;
78860;SDS011;68211;45.774;15.892;2023-03-14T13:45:13;2.03;;;1.50;;
78860;SDS011;68211;45.774;15.892;2023-03-14T13:47:42;1.60;;;1.38;;
78860;SDS011;68211;45.774;15.892;2023-03-14T13:50:12;2.08;;;1.52;;
78860;SDS011;68211;45.774;15.892;2023-03-14T13:52:39;2.72;;;1.67;;
78860;SDS011;68211;45.774;15.892;2023-03-14T13:55:13;3.20;;;1.98;;
78860;SDS011;68211;45.774;15.892;2023-03-14T13:57:46;5.95;;;2.15;;
78860;SDS011;68211;45.774;15.892;2023-03-14T14:00:22;3.80;;;1.80;;
78860;SDS011;68211;45.774;15.892;2023-03-14T14:02:49;3.10;;;1.65;;
78860;SDS011;68211;45.774;15.892;2023-03-14T14:05:16;2.13;;;1.67;;
78860;SDS011;68211;45.774;15.892;2023-03-14T14:07:43;5.47;;;1.90;;
78860;SDS011;68211;45.774;15.892;2023-03-14T14:10:10;1.90;;;1.67;;
78860;SDS011;68211;45.774;15.892;2023-03-14T14:12:38;3.67;;;2.13;;
78860;SDS011;68211;45.774;15.892;2023-03-14T14:15:09;5.00;;;2.05;;
78860;SDS011;68211;45.774;15.892;2023-03-14T14:17:37;2.53;;;1.73;;
78860;SDS011;68211;45.774;15.892;2023-03-14T14:20:05;2.97;;;1.70;;
78860;SDS011;68211;45.774;15.892;2023-03-14T14:22:33;3.20;;;1.80;;
78860;SDS011;68211;45.774;15.892;2023-03-14T14:25:00;2.63;;;1.77;;
78860;SDS011;68211;45.774;15.892;2023-03-14T14:27:28;2.20;;;1.63;;
78860;SDS011;68211;45.774;15.892;2023-03-14T14:29:58;3.85;;;1.85;;
78860;SDS011;68211;45.774;15.892;2023-03-14T14:32:27;3.35;;;1.75;;
78860;SDS011;68211;45.774;15.892;2023-03-14T14:35:00;2.05;;;1.70;;
78860;SDS011;68211;45.774;15.892;2023-03-14T14:37:27;2.67;;;1.70;;
78860;SDS011;68211;45.774;15.892;2023-03-14T14:39:55;2.35;;;1.80;;
78860;SDS011;68211;45.774;15.892;2023-03-14T14:42:24;2.58;;;1.42;;
78860;SDS011;68211;45.774;15.892;2023-03-14T14:44:51;1.33;;;1.23;;
78860;SDS011;68211;45.774;15.892;2023-03-14T14:47:18;3.17;;;1.50;;
78860;SDS011;68211;45.774;15.892;2023-03-14T14:49:47;4.00;;;1.90;;